Edon, OH (43518)

6:12 PM EST on November 25, 2014 (GMT -0500)
Bridgewater | Change Station
CLOSE
Current Station
Personal Weather Station
Location: Montpelier, OH
Elevation: 899 ft
Nearby Weather Stations

Elev 899 ft 41.63 °N, 84.66 °W | Updated 18 seconds ago

Overcast
Overcast
25.9 °F
Feels Like 17 °F
N
8.3
Wind Variable Wind from WNW
Gusts 8.7 mph

Today
High -- | Low -- °F
--% Chance of Precip.
Yesterday
High -- | Low -- °F
Precip. -- in
7:39 AM 5:12 PM
Waxing Crescent, 14% visible
Pressure 30.15 in
Visibility 10.0 miles
Clouds Overcast 1900 ft
Windchill 17 °F
Dew Point 15 °F
Humidity 64%
Rainfall 0.00 in
Snow Depth Not available.
UV 12.6 out of 12
Pollen .10 out of 12
Air Quality Not available.
Flu Activity Not available.
METAR KANQ 252315Z AUTO 31004KT 10SM OVC019 M03/M07 A3015 RMK

More Conditions Fewer Conditions

Pressure 30.15 in
Visibility 10.0 miles
Clouds Overcast 1900 ft
Windchill 17 °F
Dew Point 15 °F
Humidity 64%
Rainfall 0.00 in
Snow Depth Not available.
UV 12.6 out of 12
Pollen .10 out of 12
Air Quality Not available.
Flu Activity Not available.
METAR KANQ 252315Z AUTO 31004KT 10SM OVC019 M03/M07 A3015 RMK

More Conditions Fewer Conditions

10-Day Weather Forecast

Almanac

Astronomy

Nov. 25, 2014 Rise Set
Actual Time
Civil Twilight
Nautical Twilight
Astronomical Twilight
Moon
Length of Visible Light
Length of Day
Tomorrow will be .
, % of the Moon is Illuminated

Today's Extremes

State Highs State Lows

Community

WunderPhotos

Upload Photos

1,773,620 photos uploaded!

WunderBlogs® & News

Nearby

Air Quality

  Air Quality AQ Index Pollutant
Not available.

Snow Depth

Station Depth Elevation

Earthquake Activity

City Distance Mag. Time & Date
Minimum magnitude displayed is 2.5.

Coastal Water Temperatures

Place Temperature

Nearby Weather Stations